createdAt,value
2019-04-20T00:00:50.770Z,18.00
2019-04-20T00:03:18.062Z,12.00
2019-04-20T00:05:50.941Z,10.40
2019-04-20T00:08:27.762Z,12.25
2019-04-20T00:11:02.658Z,12.60
2019-04-20T00:13:37.868Z,10.00
2019-04-20T00:15:59.940Z,16.00
2019-04-20T00:18:34.488Z,10.40
2019-04-20T00:21:20.970Z,10.00
2019-04-20T00:23:56.613Z,9.00
2019-04-20T00:27:03.638Z,11.00
2019-04-20T00:29:21.558Z,11.20
2019-04-20T00:31:45.938Z,13.20
2019-04-20T00:34:15.679Z,10.40
2019-04-20T00:36:39.338Z,10.00
2019-04-20T00:39:13.141Z,11.40
2019-04-20T00:41:48.969Z,11.00
2019-04-20T00:44:22.033Z,14.00
2019-04-20T00:47:04.783Z,11.00
2019-04-20T00:49:36.040Z,13.60
2019-04-20T00:52:19.181Z,13.60
2019-04-20T00:54:26.272Z,15.60
2019-04-20T00:57:12.110Z,11.60
2019-04-20T00:59:51.869Z,18.60
2019-04-20T01:02:16.857Z,14.40
2019-04-20T01:04:55.074Z,14.20
2019-04-20T01:07:31.650Z,14.00
2019-04-20T01:10:07.180Z,13.50
2019-04-20T01:12:40.502Z,13.00
2019-04-20T01:15:16.668Z,15.40
2019-04-20T01:17:43.113Z,15.00
2019-04-20T01:20:14.065Z,13.00
2019-04-20T01:22:52.270Z,13.60
2019-04-20T01:25:26.445Z,17.75
2019-04-20T01:28:07.942Z,15.00
2019-04-20T01:30:30.180Z,19.00
2019-04-20T01:33:08.894Z,15.00
2019-04-20T01:35:46.129Z,13.00
2019-04-20T01:38:16.926Z,16.40
2019-04-20T01:40:33.641Z,14.80
2019-04-20T01:43:05.576Z,15.00
2019-04-20T01:45:39.555Z,13.00
2019-04-20T01:48:13.153Z,14.00
2019-04-20T01:50:51.456Z,19.60
2019-04-20T01:53:32.397Z,15.00
2019-04-20T01:56:10.133Z,18.20
2019-04-20T01:58:48.788Z,14.50
2019-04-20T02:01:27.209Z,15.00
2019-04-20T02:04:11.960Z,18.80
2019-04-20T02:06:48.085Z,14.60
2019-04-20T02:09:17.268Z,13.40
2019-04-20T02:11:49.764Z,16.00
2019-04-20T02:14:24.188Z,14.00
2019-04-20T02:16:58.454Z,20.00
2019-04-20T02:19:34.778Z,20.80
2019-04-20T02:22:07.807Z,17.00
2019-04-20T02:24:27.923Z,19.40
2019-04-20T02:26:59.789Z,13.80
2019-04-20T02:29:51.638Z,17.00
2019-04-20T02:32:36.005Z,19.50
2019-04-20T02:38:22.555Z,17.40
2019-04-20T02:43:39.315Z,17.60
2019-04-20T02:46:00.820Z,22.00
2019-04-20T02:48:35.816Z,21.00
2019-04-20T02:53:40.825Z,17.80
2019-04-20T02:56:15.191Z,22.25
2019-04-20T02:58:41.542Z,19.50
2019-04-20T03:01:30.916Z,18.50
2019-04-20T03:03:51.122Z,17.40
2019-04-20T03:06:30.786Z,19.00
2019-04-20T03:09:17.717Z,17.00
2019-04-20T03:11:56.443Z,18.40
2019-04-20T03:14:14.890Z,26.00
2019-04-20T03:16:43.674Z,18.40
2019-04-20T03:19:16.120Z,19.00
2019-04-20T03:21:58.515Z,19.00
2019-04-20T03:24:34.689Z,24.40
2019-04-20T03:27:07.128Z,22.00
2019-04-20T03:29:47.952Z,18.20
2019-04-20T03:32:57.316Z,17.40
2019-04-20T03:35:05.285Z,18.00
2019-04-20T03:37:36.808Z,20.50
2019-04-20T03:39:56.754Z,18.00
2019-04-20T03:42:16.325Z,18.00
2019-04-20T03:44:53.816Z,19.75
2019-04-20T03:47:30.511Z,19.50
2019-04-20T03:50:18.030Z,18.50
2019-04-20T03:52:49.352Z,19.60
2019-04-20T03:55:47.515Z,20.00
2019-04-20T03:58:24.146Z,20.80
2019-04-20T04:01:22.495Z,27.80
2019-04-20T04:04:06.714Z,18.40
2019-04-20T04:06:24.184Z,23.00
2019-04-20T04:08:59.521Z,27.50
2019-04-20T04:11:35.131Z,22.00
2019-04-20T04:13:50.415Z,25.50
2019-04-20T04:16:27.139Z,27.00
2019-04-20T04:19:05.907Z,21.40
2019-04-20T04:21:44.800Z,21.20
2019-04-20T04:24:14.358Z,23.60
2019-04-20T04:26:47.533Z,25.00
2019-04-20T04:29:26.851Z,23.80
2019-04-20T04:32:06.759Z,25.00
2019-04-20T04:34:30.603Z,27.20
2019-04-20T04:37:03.444Z,33.40
2019-04-20T04:39:36.938Z,26.50
2019-04-20T04:42:22.302Z,31.60
2019-04-20T04:44:37.013Z,29.60
2019-04-20T04:46:58.064Z,29.80
2019-04-20T04:49:31.136Z,29.25
2019-04-20T04:52:04.100Z,33.40
2019-04-20T04:54:43.569Z,28.00
2019-04-20T04:57:03.248Z,29.50
2019-04-20T04:59:34.205Z,30.80
2019-04-20T05:02:05.355Z,33.00
2019-04-20T05:05:30.997Z,31.20
2019-04-20T05:07:57.173Z,29.40
2019-04-20T05:10:15.960Z,29.60
2019-04-20T05:12:46.285Z,35.25
2019-04-20T05:15:34.803Z,30.00
2019-04-20T05:18:11.871Z,28.60
2019-04-20T05:20:46.896Z,35.00
2019-04-20T05:23:41.388Z,33.50
2019-04-20T05:27:06.068Z,27.00
2019-04-20T05:29:16.075Z,31.00
2019-04-20T05:31:49.387Z,36.50
2019-04-20T05:34:38.974Z,33.50
2019-04-20T05:37:17.371Z,32.00
2019-04-20T05:39:42.287Z,30.00
2019-04-20T05:42:22.124Z,32.60
2019-04-20T05:44:52.495Z,31.00
2019-04-20T05:47:18.167Z,29.00
2019-04-20T05:49:49.988Z,36.00
2019-04-20T05:52:52.170Z,28.00
2019-04-20T05:54:57.648Z,25.50
2019-04-20T05:57:30.253Z,27.60
2019-04-20T06:02:33.573Z,30.25
2019-04-20T06:05:08.679Z,31.50
2019-04-20T06:07:40.314Z,37.50
2019-04-20T06:10:11.454Z,29.50
2019-04-20T06:12:40.037Z,26.25
2019-04-20T06:15:22.367Z,33.25
2019-04-20T06:18:19.025Z,32.60
2019-04-20T06:21:00.404Z,26.60
2019-04-20T06:23:45.616Z,26.60
2019-04-20T06:26:36.976Z,25.25
2019-04-20T06:28:40.597Z,25.40
2019-04-20T06:31:18.082Z,25.20
2019-04-20T06:36:52.608Z,25.00
2019-04-20T06:39:26.236Z,26.00
2019-04-20T06:44:31.971Z,23.60
2019-04-20T06:49:34.523Z,24.00
2019-04-20T06:52:20.395Z,19.80
2019-04-20T06:55:09.705Z,20.00
2019-04-20T06:57:54.783Z,22.60
2019-04-20T07:00:27.607Z,22.60
2019-04-20T07:02:48.470Z,23.40
2019-04-20T07:05:22.397Z,22.40
2019-04-20T07:07:54.717Z,25.40
2019-04-20T07:10:44.534Z,24.00
2019-04-20T07:12:55.337Z,23.00
2019-04-20T07:15:29.136Z,23.20
2019-04-20T07:18:08.289Z,21.80
2019-04-20T07:20:59.484Z,20.50
2019-04-20T07:26:03.972Z,21.60
2019-04-20T07:28:41.362Z,18.00
2019-04-20T07:31:06.860Z,23.00
2019-04-20T07:33:44.648Z,20.80
2019-04-20T07:36:20.169Z,20.00
2019-04-20T07:38:48.834Z,21.00
2019-04-20T07:41:24.882Z,20.60
2019-04-20T07:44:01.171Z,23.00
2019-04-20T07:46:37.073Z,25.50
2019-04-20T07:48:59.916Z,18.20
2019-04-20T07:51:14.207Z,24.00
2019-04-20T07:53:59.603Z,26.00
2019-04-20T07:56:34.068Z,21.20
2019-04-20T07:58:50.905Z,21.50
2019-04-20T08:01:57.469Z,20.80
2019-04-20T08:04:22.679Z,18.60
2019-04-20T08:06:47.023Z,20.00
2019-04-20T08:09:22.217Z,24.80
2019-04-20T08:12:55.617Z,20.00
2019-04-20T08:15:32.818Z,19.00
2019-04-20T08:18:11.259Z,20.00
2019-04-20T08:20:25.822Z,20.00
2019-04-20T08:22:59.093Z,21.20
2019-04-20T08:25:23.772Z,17.50
2019-04-20T08:28:01.628Z,18.00
2019-04-20T08:31:06.661Z,20.00
2019-04-20T08:33:44.745Z,25.40
2019-04-20T08:36:16.817Z,17.60
2019-04-20T08:41:19.490Z,19.75
2019-04-20T08:44:21.670Z,18.60
2019-04-20T08:46:27.825Z,18.00
2019-04-20T08:48:55.802Z,17.00
2019-04-20T08:51:31.960Z,18.50
2019-04-20T08:54:02.346Z,21.80
2019-04-20T08:56:31.143Z,20.50
2019-04-20T08:58:48.923Z,17.60
2019-04-20T09:01:21.592Z,17.25
2019-04-20T09:04:04.622Z,19.75
2019-04-20T09:06:40.005Z,16.80
2019-04-20T09:09:20.694Z,19.60
2019-04-20T09:11:51.205Z,17.60
2019-04-20T09:14:22.090Z,17.20
2019-04-20T09:17:10.265Z,16.00
2019-04-20T09:19:52.301Z,20.40
2019-04-20T09:23:09.781Z,16.75
2019-04-20T09:28:22.418Z,18.40
2019-04-20T09:30:53.426Z,22.60
2019-04-20T09:33:55.650Z,21.00
2019-04-20T09:36:29.258Z,15.60
2019-04-20T09:39:08.353Z,19.40
2019-04-20T09:41:59.101Z,15.75
2019-04-20T09:44:11.034Z,25.80
2019-04-20T09:51:09.151Z,19.25
2019-04-20T09:53:35.806Z,15.00
2019-04-20T09:56:12.985Z,17.50
2019-04-20T10:02:32.595Z,16.00
2019-04-20T10:05:02.016Z,14.60
2019-04-20T10:07:35.603Z,16.80
2019-04-20T10:10:19.067Z,15.40
2019-04-20T10:12:38.105Z,16.60
2019-04-20T10:15:15.716Z,21.60
2019-04-20T10:17:41.504Z,14.80
2019-04-20T10:20:20.810Z,17.80
2019-04-20T10:22:44.797Z,18.00
2019-04-20T10:25:16.728Z,15.60
2019-04-20T10:27:47.548Z,17.00
2019-04-20T10:30:18.634Z,14.40
2019-04-20T10:32:52.264Z,15.25
2019-04-20T10:35:23.280Z,19.40
2019-04-20T10:38:07.559Z,15.00
2019-04-20T10:40:50.752Z,17.00
2019-04-20T10:43:12.046Z,14.00
2019-04-20T10:45:44.842Z,15.80
2019-04-20T10:48:15.612Z,12.00
2019-04-20T10:50:47.229Z,15.00
2019-04-20T10:53:17.987Z,18.80
2019-04-20T10:55:49.476Z,15.00
2019-04-20T10:58:21.853Z,16.00
2019-04-20T11:00:53.497Z,12.40
2019-04-20T11:03:24.858Z,14.60
2019-04-20T11:05:56.424Z,13.00
2019-04-20T11:08:28.599Z,11.80
2019-04-20T11:11:09.332Z,11.60
2019-04-20T11:13:33.255Z,11.00
2019-04-20T11:16:04.314Z,10.60
2019-04-20T11:18:35.536Z,14.00
2019-04-20T11:21:07.174Z,11.60
2019-04-20T11:23:38.393Z,11.00
2019-04-20T11:26:10.427Z,11.00
2019-04-20T11:28:42.169Z,11.80
2019-04-20T11:31:14.335Z,7.80
2019-04-20T11:33:45.873Z,12.00
2019-04-20T11:36:17.138Z,11.00
2019-04-20T11:38:49.058Z,9.40
2019-04-20T11:41:25.649Z,9.40
2019-04-20T11:43:53.545Z,8.20
2019-04-20T11:46:24.935Z,10.00
2019-04-20T11:48:57.199Z,11.00
2019-04-20T11:51:28.131Z,9.75
2019-04-20T11:53:59.025Z,9.20
2019-04-20T11:56:34.834Z,10.60
2019-04-20T11:59:03.023Z,9.00
2019-04-20T12:02:19.624Z,9.60
2019-04-20T12:05:06.303Z,11.60
2019-04-20T12:07:24.916Z,8.40
2019-04-20T12:09:59.391Z,8.40
2019-04-20T12:12:38.000Z,9.00
2019-04-20T12:15:01.737Z,9.00
2019-04-20T12:17:33.495Z,9.40
2019-04-20T12:20:05.878Z,8.00
2019-04-20T12:22:37.117Z,9.00
2019-04-20T12:25:08.122Z,7.80
2019-04-20T12:27:41.958Z,8.40
2019-04-20T12:30:12.306Z,9.40
2019-04-20T12:32:50.455Z,10.00
2019-04-20T12:35:16.143Z,9.00
2019-04-20T12:37:47.349Z,9.00
2019-04-20T12:40:19.877Z,9.00
2019-04-20T12:42:51.013Z,9.00
2019-04-20T12:45:21.996Z,8.00
2019-04-20T12:47:53.471Z,8.40
2019-04-20T12:50:25.807Z,7.25
2019-04-20T12:52:58.825Z,8.80
2019-04-20T12:55:30.542Z,6.40
2019-04-20T12:58:02.782Z,8.80
2019-04-20T13:00:49.754Z,6.00
2019-04-20T13:03:21.409Z,6.60
2019-04-20T13:05:52.436Z,7.00
2019-04-20T13:08:30.395Z,8.00
2019-04-20T13:11:13.511Z,7.40
2019-04-20T13:14:14.580Z,9.00
2019-04-20T13:16:49.032Z,7.80
2019-04-20T13:19:19.340Z,8.00
2019-04-20T13:21:50.411Z,9.00
2019-04-20T13:24:21.405Z,7.60
2019-04-20T13:26:53.057Z,6.60
2019-04-20T13:29:24.825Z,7.00
2019-04-20T13:31:56.774Z,8.00
2019-04-20T13:34:28.496Z,7.00
2019-04-20T13:37:00.068Z,5.80
2019-04-20T13:39:33.045Z,8.00
2019-04-20T13:42:12.221Z,6.40
2019-04-20T13:44:36.921Z,7.60
2019-04-20T13:47:09.096Z,9.60
2019-04-20T13:49:40.970Z,7.00
2019-04-20T13:52:12.997Z,7.40
2019-04-20T13:54:45.183Z,7.40
2019-04-20T13:57:19.786Z,8.20
2019-04-20T13:59:54.162Z,7.00
2019-04-20T14:02:40.699Z,8.00
2019-04-20T14:05:12.614Z,9.50
2019-04-20T14:07:44.976Z,7.75
2019-04-20T14:10:17.416Z,13.25
2019-04-20T14:12:58.509Z,8.00
2019-04-20T14:15:20.997Z,9.00
2019-04-20T14:17:53.035Z,10.00
2019-04-20T14:20:25.448Z,7.00
2019-04-20T14:22:58.836Z,9.00
2019-04-20T14:25:29.541Z,8.40
2019-04-20T14:28:00.710Z,9.50
2019-04-20T14:30:33.009Z,7.80
2019-04-20T14:33:05.110Z,10.40
2019-04-20T14:35:36.925Z,8.40
2019-04-20T14:38:07.970Z,9.60
2019-04-20T14:40:39.983Z,9.40
2019-04-20T14:43:11.127Z,9.00
2019-04-20T14:45:42.855Z,9.00
2019-04-20T14:48:14.023Z,9.50
2019-04-20T14:50:45.639Z,9.00
2019-04-20T14:53:17.706Z,11.00
2019-04-20T14:55:49.294Z,9.00
2019-04-20T14:58:41.047Z,13.00
2019-04-20T15:01:23.203Z,11.00
2019-04-20T15:03:59.835Z,10.60
2019-04-20T15:06:27.564Z,8.00
2019-04-20T15:08:58.823Z,10.00
2019-04-20T15:11:30.500Z,9.00
2019-04-20T15:14:02.597Z,8.60
2019-04-20T15:16:34.792Z,8.20
2019-04-20T15:19:23.513Z,10.60
2019-04-20T15:21:55.893Z,11.00
2019-04-20T15:24:27.373Z,12.00
2019-04-20T15:26:58.448Z,9.60
2019-04-20T15:29:30.430Z,9.80
2019-04-20T15:32:04.161Z,9.40
2019-04-20T15:34:35.109Z,10.00
2019-04-20T15:37:07.894Z,7.00
2019-04-20T15:39:39.065Z,8.80
2019-04-20T15:42:11.464Z,6.50
2019-04-20T15:44:42.998Z,6.40
2019-04-20T15:47:15.345Z,17.00
2019-04-20T15:49:46.235Z,11.00
2019-04-20T15:52:24.544Z,8.20
2019-04-20T15:54:49.990Z,8.00
2019-04-20T15:57:24.999Z,6.75
2019-04-20T15:59:53.624Z,6.80
2019-04-20T16:02:43.314Z,8.00
2019-04-20T16:05:33.256Z,7.80
2019-04-20T16:08:23.676Z,6.60
2019-04-20T16:10:57.109Z,9.40
2019-04-20T16:13:36.081Z,6.00
2019-04-20T16:16:01.552Z,13.40
2019-04-20T16:18:32.815Z,8.20
2019-04-20T16:21:11.169Z,10.75
2019-04-20T16:24:01.100Z,6.80
2019-04-20T16:26:55.873Z,8.60
2019-04-20T16:29:35.627Z,5.00
2019-04-20T16:32:06.760Z,8.00
2019-04-20T16:34:38.348Z,8.20
2019-04-20T16:37:12.659Z,9.00
2019-04-20T16:39:44.204Z,6.20
2019-04-20T16:42:16.208Z,11.00
2019-04-20T16:44:47.271Z,13.20
2019-04-20T16:47:18.446Z,7.00
2019-04-20T16:49:51.092Z,6.00
2019-04-20T16:52:23.029Z,6.00
2019-04-20T16:54:55.604Z,5.80
2019-04-20T16:57:27.696Z,6.40
2019-04-20T16:59:59.891Z,6.00
2019-04-20T17:02:31.923Z,8.40
2019-04-20T17:05:05.198Z,7.00
2019-04-20T17:07:46.988Z,7.00
2019-04-20T17:10:18.279Z,9.40
2019-04-20T17:12:49.282Z,6.00
2019-04-20T17:15:23.594Z,6.00
2019-04-20T17:17:56.706Z,9.00
2019-04-20T17:20:28.879Z,8.00
2019-04-20T17:23:03.898Z,8.00
2019-04-20T17:25:34.410Z,8.60
2019-04-20T17:28:33.085Z,9.40
2019-04-20T17:31:33.545Z,7.40
2019-04-20T17:34:31.455Z,8.60
2019-04-20T17:36:46.527Z,6.40
2019-04-20T17:39:27.882Z,6.00
2019-04-20T17:42:10.129Z,10.80
2019-04-20T17:44:39.686Z,8.60
2019-04-20T17:47:09.815Z,5.60
2019-04-20T17:49:41.226Z,6.25
2019-04-20T17:52:26.305Z,7.60
2019-04-20T17:54:55.806Z,7.00
2019-04-20T17:57:26.957Z,9.00
2019-04-20T18:00:05.308Z,10.00
2019-04-20T18:03:01.966Z,8.00
2019-04-20T18:05:55.771Z,8.00
2019-04-20T18:08:27.281Z,8.40
2019-04-20T18:10:53.217Z,10.00
2019-04-20T18:13:19.616Z,10.00
2019-04-20T18:16:10.065Z,15.00
2019-04-20T18:18:57.385Z,23.00
2019-04-20T18:21:40.159Z,19.20
2019-04-20T18:24:14.167Z,15.80
2019-04-20T18:27:01.006Z,20.00
2019-04-20T18:29:38.369Z,24.00
2019-04-20T18:32:09.666Z,22.25
2019-04-20T18:34:56.357Z,19.80
2019-04-20T18:37:26.866Z,12.20
2019-04-20T18:40:05.116Z,8.40
2019-04-20T18:42:36.139Z,12.00
2019-04-20T18:45:23.730Z,8.20
2019-04-20T18:47:55.130Z,10.00
2019-04-20T18:50:17.347Z,9.00
2019-04-20T18:52:42.487Z,7.00
2019-04-20T19:41:23.261Z,14.00
2019-04-20T20:18:52.143Z,11.40
2019-04-20T20:21:24.425Z,10.00
2019-04-20T20:23:47.889Z,11.75
2019-04-20T20:59:29.988Z,9.20
2019-04-20T22:31:56.431Z,9.80
2019-04-20T22:34:26.231Z,12.00
2019-04-20T22:36:56.017Z,8.00
2019-04-20T22:39:39.335Z,8.00
2019-04-20T22:45:45.699Z,9.00
2019-04-20T22:48:16.257Z,11.00
2019-04-20T22:51:08.825Z,9.20
2019-04-20T22:53:36.425Z,10.60
2019-04-20T22:56:16.793Z,11.00
2019-04-20T22:58:40.447Z,7.00
2019-04-20T23:01:04.290Z,10.00
2019-04-20T23:03:30.653Z,9.00
2019-04-20T23:06:02.844Z,9.50
2019-04-20T23:08:34.933Z,11.40
2019-04-20T23:11:14.788Z,9.00
2019-04-20T23:13:42.830Z,9.40
2019-04-20T23:20:22.951Z,10.00
2019-04-20T23:22:49.330Z,10.20
2019-04-20T23:26:29.896Z,9.00
2019-04-20T23:29:00.464Z,7.00
2019-04-20T23:31:30.462Z,10.60
2019-04-20T23:34:11.247Z,8.00
2019-04-20T23:55:05.973Z,9.00
2019-04-20T23:57:35.607Z,9.00
